createdAt,value
2018-06-24T00:00:18.387Z,15.5
2018-06-24T00:01:19.778Z,15.5
2018-06-24T00:02:21.173Z,15.5
2018-06-24T00:03:22.562Z,15.6
2018-06-24T00:04:23.952Z,15.5
2018-06-24T00:05:25.389Z,15.6
2018-06-24T00:06:26.784Z,15.5
2018-06-24T00:07:28.178Z,15.5
2018-06-24T00:08:29.571Z,15.5
2018-06-24T00:09:30.963Z,15.5
2018-06-24T00:10:32.369Z,15.5
2018-06-24T00:11:33.774Z,15.6
2018-06-24T00:12:35.197Z,15.7
2018-06-24T00:13:36.591Z,15.6
2018-06-24T00:14:37.981Z,15.5
2018-06-24T00:15:39.373Z,15.6
2018-06-24T00:16:40.767Z,15.6
2018-06-24T00:17:42.155Z,15.5
2018-06-24T00:18:43.571Z,15.6
2018-06-24T00:19:44.956Z,15.6
2018-06-24T00:20:46.350Z,15.5
2018-06-24T00:21:47.747Z,15.5
2018-06-24T00:22:49.138Z,15.5
2018-06-24T00:23:50.530Z,15.5
2018-06-24T00:24:51.921Z,15.5
2018-06-24T00:25:53.309Z,15.4
2018-06-24T00:26:54.697Z,15.4
2018-06-24T00:27:56.111Z,15.4
2018-06-24T00:28:57.501Z,15.4
2018-06-24T00:29:58.907Z,15.4
2018-06-24T00:31:00.290Z,15.4
2018-06-24T00:32:01.688Z,15.3
2018-06-24T00:33:03.074Z,15.3
2018-06-24T00:34:04.467Z,15.3
2018-06-24T00:35:05.881Z,15.3
2018-06-24T00:36:07.267Z,15.3
2018-06-24T00:37:08.699Z,15.3
2018-06-24T00:38:10.066Z,15.3
2018-06-24T00:39:11.456Z,15.3
2018-06-24T00:40:12.845Z,15.3
2018-06-24T00:41:14.238Z,15.3
2018-06-24T00:42:15.635Z,15.3
2018-06-24T00:43:17.034Z,15.3
2018-06-24T00:44:18.428Z,15.3
2018-06-24T00:45:19.820Z,15.2
2018-06-24T00:46:21.925Z,15.2
2018-06-24T00:47:23.316Z,15.2
2018-06-24T00:48:24.709Z,15.2
2018-06-24T00:49:26.116Z,15.2
2018-06-24T00:50:27.507Z,15.1
2018-06-24T00:51:28.944Z,15.2
2018-06-24T00:52:30.295Z,15.2
2018-06-24T00:53:31.689Z,15.2
2018-06-24T00:54:33.076Z,15.1
2018-06-24T00:55:34.476Z,15.2
2018-06-24T00:56:35.870Z,15.2
2018-06-24T00:57:37.328Z,15.1
2018-06-24T00:58:38.716Z,15.2
2018-06-24T00:59:40.107Z,15.1
2018-06-24T01:00:41.498Z,15.1
2018-06-24T01:01:42.892Z,15.1
2018-06-24T01:02:44.286Z,15.1
2018-06-24T01:03:45.682Z,15.1
2018-06-24T01:04:47.066Z,15.2
2018-06-24T01:05:48.466Z,15.1
2018-06-24T01:06:49.850Z,15.2
2018-06-24T01:07:51.238Z,15.2
2018-06-24T01:08:52.631Z,15.2
2018-06-24T01:09:54.025Z,15.1
2018-06-24T01:10:55.414Z,15.2
2018-06-24T01:11:56.810Z,15.2
2018-06-24T01:12:58.200Z,15.1
2018-06-24T01:13:59.591Z,15.1
2018-06-24T01:15:01.032Z,15.2
2018-06-24T01:16:02.430Z,15.1
2018-06-24T01:17:03.821Z,15.2
2018-06-24T01:18:05.211Z,15.2
2018-06-24T01:19:06.608Z,15.2
2018-06-24T01:20:07.997Z,15.1
2018-06-24T01:21:09.388Z,15.1
2018-06-24T01:22:10.777Z,15.1
2018-06-24T01:23:12.168Z,15.1
2018-06-24T01:24:13.561Z,15.1
2018-06-24T01:25:14.953Z,15.1
2018-06-24T01:26:16.358Z,15.2
2018-06-24T01:27:17.755Z,15.1
2018-06-24T01:28:19.142Z,15.2
2018-06-24T01:29:20.530Z,15.2
2018-06-24T01:30:21.917Z,15.1
2018-06-24T01:31:23.311Z,15.3
2018-06-24T01:32:24.706Z,15.1
2018-06-24T01:33:26.100Z,15.2
2018-06-24T01:34:27.501Z,15.2
2018-06-24T01:35:28.889Z,15.2
2018-06-24T01:36:30.275Z,15.2
2018-06-24T01:37:31.666Z,15.1
2018-06-24T01:38:33.062Z,15.2
2018-06-24T01:39:34.457Z,15.2
2018-06-24T01:40:35.849Z,15.2
2018-06-24T01:41:37.246Z,15.2
2018-06-24T01:42:38.635Z,15.1
2018-06-24T01:43:40.025Z,15.2
2018-06-24T01:44:41.431Z,15.2
2018-06-24T01:45:42.824Z,15.1
2018-06-24T01:46:44.253Z,15.2
2018-06-24T01:47:45.636Z,15.1
2018-06-24T01:48:47.051Z,15.2
2018-06-24T01:49:48.444Z,15.1
2018-06-24T01:50:50.677Z,15.2
2018-06-24T01:51:52.068Z,15.2
2018-06-24T01:52:53.459Z,15.2
2018-06-24T01:53:54.853Z,15.1
2018-06-24T01:54:56.241Z,15.2
2018-06-24T01:55:57.635Z,15.1
2018-06-24T01:56:59.024Z,15.1
2018-06-24T01:58:00.419Z,15.2
2018-06-24T01:59:01.812Z,15.1
2018-06-24T02:00:03.202Z,15.1
2018-06-24T02:01:04.591Z,15.2
2018-06-24T02:02:05.983Z,15.2
2018-06-24T02:03:07.379Z,15.2
2018-06-24T02:04:08.810Z,15.2
2018-06-24T02:05:10.199Z,15.1
2018-06-24T02:06:11.600Z,15.2
2018-06-24T02:07:12.983Z,15.2
2018-06-24T02:08:14.376Z,15.1
2018-06-24T02:09:15.774Z,15.1
2018-06-24T02:10:17.161Z,15.1
2018-06-24T02:11:18.556Z,15.0
2018-06-24T02:12:19.948Z,15.0
2018-06-24T02:13:21.342Z,15.0
2018-06-24T02:14:22.735Z,14.9
2018-06-24T02:15:24.129Z,14.9
2018-06-24T02:16:25.526Z,14.9
2018-06-24T02:17:26.917Z,14.9
2018-06-24T02:18:28.309Z,15.0
2018-06-24T02:19:29.697Z,15.0
2018-06-24T02:20:31.089Z,15.0
2018-06-24T02:21:32.491Z,15.0
2018-06-24T02:22:33.879Z,15.0
2018-06-24T02:23:35.272Z,15.0
2018-06-24T02:24:36.674Z,15.0
2018-06-24T02:25:38.061Z,15.0
2018-06-24T02:26:39.458Z,15.0
2018-06-24T02:27:40.850Z,15.1
2018-06-24T02:28:42.241Z,15.0
2018-06-24T02:29:43.636Z,15.1
2018-06-24T02:30:45.030Z,15.1
2018-06-24T02:31:46.426Z,15.1
2018-06-24T02:32:47.818Z,15.1
2018-06-24T02:33:49.209Z,15.1
2018-06-24T02:34:50.705Z,15.1
2018-06-24T02:35:52.109Z,15.0
2018-06-24T02:36:53.499Z,15.2
2018-06-24T02:37:54.891Z,15.1
2018-06-24T02:38:56.287Z,15.1
2018-06-24T02:39:57.678Z,15.1
2018-06-24T02:40:59.073Z,15.1
2018-06-24T02:42:00.472Z,15.1
2018-06-24T02:43:01.860Z,15.0
2018-06-24T02:44:03.251Z,15.0
2018-06-24T02:45:04.646Z,14.9
2018-06-24T02:46:06.042Z,15.0
2018-06-24T02:47:07.435Z,14.9
2018-06-24T02:48:08.825Z,14.8
2018-06-24T02:49:10.214Z,14.8
2018-06-24T02:50:11.604Z,14.8
2018-06-24T02:51:12.999Z,14.8
2018-06-24T02:52:14.390Z,14.8
2018-06-24T02:53:15.787Z,14.9
2018-06-24T02:54:17.178Z,14.8
2018-06-24T02:55:18.568Z,14.8
2018-06-24T02:56:19.964Z,14.7
2018-06-24T02:57:21.352Z,14.8
2018-06-24T02:58:22.746Z,14.7
2018-06-24T02:59:24.137Z,14.8
2018-06-24T03:00:25.535Z,14.7
2018-06-24T03:01:26.925Z,14.7
2018-06-24T03:02:28.317Z,14.7
2018-06-24T03:03:29.713Z,14.7
2018-06-24T03:04:31.115Z,14.6
2018-06-24T03:05:32.504Z,14.7
2018-06-24T03:06:33.896Z,14.7
2018-06-24T03:07:35.292Z,14.7
2018-06-24T03:08:36.689Z,14.7
2018-06-24T03:09:38.084Z,14.7
2018-06-24T03:10:39.478Z,14.7
2018-06-24T03:11:40.871Z,14.6
2018-06-24T03:12:42.369Z,14.7
2018-06-24T03:13:43.654Z,14.7
2018-06-24T03:14:45.052Z,14.6
2018-06-24T03:15:46.446Z,14.7
2018-06-24T03:16:47.841Z,14.7
2018-06-24T03:17:49.233Z,14.7
2018-06-24T03:18:50.627Z,14.6
2018-06-24T03:19:52.018Z,14.6
2018-06-24T03:20:53.427Z,14.7
2018-06-24T03:21:54.815Z,14.7
2018-06-24T03:22:56.204Z,14.7
2018-06-24T03:23:57.599Z,14.7
2018-06-24T03:24:59.047Z,14.7
2018-06-24T03:26:00.488Z,14.7
2018-06-24T03:27:01.883Z,14.7
2018-06-24T03:28:03.274Z,14.6
2018-06-24T03:29:04.674Z,14.6
2018-06-24T03:30:06.070Z,14.7
2018-06-24T03:31:07.465Z,14.7
2018-06-24T03:32:08.863Z,14.6
2018-06-24T03:33:10.252Z,14.6
2018-06-24T03:34:11.646Z,14.6
2018-06-24T03:35:13.037Z,14.6
2018-06-24T03:36:14.434Z,14.5
2018-06-24T03:37:15.832Z,14.6
2018-06-24T03:38:17.222Z,14.5
2018-06-24T03:39:18.615Z,14.5
2018-06-24T03:40:20.008Z,14.5
2018-06-24T03:41:21.405Z,14.5
2018-06-24T03:42:22.799Z,14.5
2018-06-24T03:43:24.197Z,14.4
2018-06-24T03:44:25.589Z,14.4
2018-06-24T03:45:26.983Z,14.5
2018-06-24T03:46:28.377Z,14.5
2018-06-24T03:47:29.773Z,14.3
2018-06-24T03:48:31.162Z,14.4
2018-06-24T03:49:32.558Z,14.3
2018-06-24T03:50:33.959Z,14.4
2018-06-24T03:51:35.348Z,14.3
2018-06-24T03:52:36.742Z,14.3
2018-06-24T03:53:38.140Z,14.4
2018-06-24T03:54:39.537Z,14.3
2018-06-24T03:55:40.928Z,14.3
2018-06-24T03:56:42.325Z,14.3
2018-06-24T03:57:43.720Z,14.3
2018-06-24T03:58:45.114Z,14.3
2018-06-24T03:59:46.507Z,14.3
2018-06-24T04:00:47.899Z,14.3
2018-06-24T04:01:49.299Z,14.3
2018-06-24T04:02:50.692Z,14.3
2018-06-24T04:03:52.086Z,14.2
2018-06-24T04:04:53.483Z,14.2
2018-06-24T04:05:54.876Z,14.2
2018-06-24T04:06:56.270Z,14.4
2018-06-24T04:07:57.664Z,14.3
2018-06-24T04:08:59.057Z,14.1
2018-06-24T04:10:00.452Z,14.3
2018-06-24T04:11:01.849Z,14.3
2018-06-24T04:12:03.246Z,14.3
2018-06-24T04:13:04.639Z,14.2
2018-06-24T04:14:06.094Z,14.2
2018-06-24T04:15:07.487Z,14.3
2018-06-24T04:16:08.883Z,14.3
2018-06-24T04:17:10.280Z,14.3
2018-06-24T04:18:11.674Z,14.3
2018-06-24T04:19:13.072Z,14.3
2018-06-24T04:20:14.466Z,14.3
2018-06-24T04:21:15.864Z,14.3
2018-06-24T04:22:17.257Z,14.2
2018-06-24T04:23:18.652Z,14.3
2018-06-24T04:24:20.091Z,14.3
2018-06-24T04:25:21.498Z,14.3
2018-06-24T04:26:22.893Z,14.4
2018-06-24T04:27:24.289Z,14.4
2018-06-24T04:28:25.680Z,14.4
2018-06-24T04:29:27.076Z,14.3
2018-06-24T04:30:28.470Z,14.5
2018-06-24T04:31:29.868Z,14.4
2018-06-24T04:32:31.266Z,14.4
2018-06-24T04:33:32.665Z,14.6
2018-06-24T04:34:34.060Z,14.6
2018-06-24T04:35:35.453Z,14.6
2018-06-24T04:36:36.854Z,14.5
2018-06-24T04:37:38.244Z,14.6
2018-06-24T04:38:39.640Z,14.6
2018-06-24T04:39:41.038Z,14.7
2018-06-24T04:40:42.435Z,14.7
2018-06-24T04:41:43.830Z,14.7
2018-06-24T04:42:45.224Z,14.7
2018-06-24T04:43:46.622Z,14.6
2018-06-24T04:44:48.017Z,14.8
2018-06-24T04:45:49.415Z,14.8
2018-06-24T04:46:50.823Z,14.8
2018-06-24T04:47:52.224Z,14.8
2018-06-24T04:48:53.616Z,14.9
2018-06-24T04:49:55.009Z,14.9
2018-06-24T04:50:56.403Z,14.9
2018-06-24T04:51:57.802Z,15.0
2018-06-24T04:52:59.201Z,15.0
2018-06-24T04:54:00.600Z,15.0
2018-06-24T04:55:01.993Z,14.9
2018-06-24T04:56:03.382Z,15.1
2018-06-24T04:57:04.779Z,15.0
2018-06-24T04:58:06.172Z,15.0
2018-06-24T04:59:07.600Z,15.0
2018-06-24T05:00:09.001Z,15.0
2018-06-24T05:01:10.400Z,15.0
2018-06-24T05:02:11.794Z,15.0
2018-06-24T05:03:13.211Z,15.0
2018-06-24T05:04:14.601Z,15.0
2018-06-24T05:05:15.991Z,15.0
2018-06-24T05:06:17.388Z,15.2
2018-06-24T05:07:18.787Z,15.0
2018-06-24T05:08:20.186Z,15.1
2018-06-24T05:09:21.583Z,15.1
2018-06-24T05:10:22.977Z,15.1
2018-06-24T05:11:24.377Z,15.1
2018-06-24T05:12:25.773Z,15.1
2018-06-24T05:13:27.173Z,15.1
2018-06-24T05:14:28.565Z,15.0
2018-06-24T05:15:29.964Z,15.1
2018-06-24T05:16:31.359Z,15.1
2018-06-24T05:17:32.753Z,15.1
2018-06-24T05:18:34.147Z,15.1
2018-06-24T05:19:35.539Z,15.1
2018-06-24T05:20:36.936Z,15.1
2018-06-24T05:21:38.335Z,15.1
2018-06-24T05:22:39.738Z,15.2
2018-06-24T05:23:41.137Z,15.3
2018-06-24T05:24:42.534Z,15.2
2018-06-24T05:25:43.931Z,15.4
2018-06-24T05:26:45.327Z,15.4
2018-06-24T05:27:46.725Z,15.3
2018-06-24T05:28:48.126Z,15.4
2018-06-24T05:29:49.530Z,15.4
2018-06-24T05:30:50.919Z,15.4
2018-06-24T05:31:52.308Z,15.5
2018-06-24T05:32:53.704Z,15.5
2018-06-24T05:33:55.098Z,15.5
2018-06-24T05:34:56.501Z,15.7
2018-06-24T05:35:57.893Z,15.7
2018-06-24T05:36:59.291Z,15.7
2018-06-24T05:38:00.693Z,15.6
2018-06-24T05:39:02.086Z,15.6
2018-06-24T05:40:03.485Z,15.7
2018-06-24T05:41:04.883Z,15.7
2018-06-24T05:42:06.281Z,15.8
2018-06-24T05:43:07.693Z,15.8
2018-06-24T05:44:09.082Z,15.8
2018-06-24T05:45:10.483Z,15.9
2018-06-24T05:46:11.878Z,15.9
2018-06-24T05:47:13.323Z,16.1
2018-06-24T05:48:14.716Z,16.1
2018-06-24T05:49:16.114Z,16.1
2018-06-24T05:50:17.516Z,16.2
2018-06-24T05:51:18.910Z,16.3
2018-06-24T05:52:20.326Z,16.3
2018-06-24T05:53:21.736Z,16.3
2018-06-24T05:54:23.175Z,16.4
2018-06-24T05:55:24.521Z,16.5
2018-06-24T05:56:25.917Z,16.4
2018-06-24T05:57:27.504Z,16.4
2018-06-24T05:58:28.897Z,16.3
2018-06-24T05:59:30.298Z,16.4
2018-06-24T06:00:31.703Z,16.4
2018-06-24T06:01:33.096Z,16.5
2018-06-24T06:02:34.490Z,16.6
2018-06-24T06:03:35.883Z,16.5
2018-06-24T06:04:37.285Z,16.5
2018-06-24T06:05:38.688Z,16.6
2018-06-24T06:06:40.079Z,16.6
2018-06-24T06:07:41.475Z,16.6
2018-06-24T06:08:42.881Z,16.6
2018-06-24T06:09:44.274Z,16.6
2018-06-24T06:10:45.670Z,16.6
2018-06-24T06:11:47.069Z,16.5
2018-06-24T06:12:48.468Z,16.5
2018-06-24T06:13:49.893Z,16.5
2018-06-24T06:14:51.260Z,16.5
2018-06-24T06:15:52.656Z,16.6
2018-06-24T06:16:54.052Z,16.6
2018-06-24T06:17:55.466Z,16.7
2018-06-24T06:18:56.863Z,16.7
2018-06-24T06:19:58.332Z,16.6
2018-06-24T06:20:59.731Z,16.6
2018-06-24T06:22:01.145Z,16.6
2018-06-24T06:23:02.540Z,16.7
2018-06-24T06:24:03.937Z,16.6
2018-06-24T06:25:05.332Z,16.6
2018-06-24T06:26:06.739Z,16.6
2018-06-24T06:27:08.136Z,16.5
2018-06-24T06:28:09.534Z,16.6
2018-06-24T06:29:10.936Z,16.7
2018-06-24T06:30:12.356Z,16.7
2018-06-24T06:31:13.746Z,16.7
2018-06-24T06:32:15.152Z,16.7
2018-06-24T06:33:16.567Z,16.7
2018-06-24T06:34:17.951Z,16.7
2018-06-24T06:35:19.367Z,16.8
2018-06-24T06:36:20.761Z,16.9
2018-06-24T06:37:22.157Z,17.0
2018-06-24T06:38:23.554Z,17.0
2018-06-24T06:39:25.008Z,17.0
2018-06-24T06:40:26.420Z,17.1
2018-06-24T06:41:27.839Z,17.1
2018-06-24T06:42:29.240Z,17.1
2018-06-24T06:43:30.637Z,17.1
2018-06-24T06:44:32.036Z,17.1
2018-06-24T06:45:33.525Z,17.2
2018-06-24T06:46:34.992Z,17.1
2018-06-24T06:47:36.383Z,17.1
2018-06-24T06:48:37.836Z,17.1
2018-06-24T06:49:39.182Z,17.0
2018-06-24T06:50:40.579Z,17.0
2018-06-24T06:51:41.973Z,16.9
2018-06-24T06:52:43.391Z,17.0
2018-06-24T06:53:44.797Z,17.0
2018-06-24T06:54:46.214Z,17.0
2018-06-24T06:55:47.622Z,17.0
2018-06-24T06:56:49.025Z,17.0
2018-06-24T06:57:50.490Z,17.1
2018-06-24T06:58:51.825Z,17.0
2018-06-24T06:59:53.225Z,17.1
2018-06-24T07:00:54.616Z,17.2
2018-06-24T07:01:56.048Z,17.2
2018-06-24T07:02:57.449Z,17.3
2018-06-24T07:03:58.839Z,17.2
2018-06-24T07:05:00.232Z,17.2
2018-06-24T07:06:01.629Z,17.4
2018-06-24T07:07:03.068Z,17.4
2018-06-24T07:08:04.497Z,17.4
2018-06-24T07:09:05.898Z,17.4
2018-06-24T07:10:07.308Z,17.4
2018-06-24T07:11:08.716Z,17.5
2018-06-24T07:12:10.112Z,17.4
2018-06-24T07:13:11.571Z,17.6
2018-06-24T07:14:12.913Z,17.6
2018-06-24T07:15:14.331Z,17.6
2018-06-24T07:16:15.728Z,17.7
2018-06-24T07:17:17.127Z,17.6
2018-06-24T07:18:18.543Z,17.7
2018-06-24T07:19:19.965Z,17.8
2018-06-24T07:20:21.366Z,17.9
2018-06-24T07:21:22.758Z,17.9
2018-06-24T07:22:24.155Z,17.9
2018-06-24T07:23:25.557Z,17.9
2018-06-24T07:24:26.965Z,17.9
2018-06-24T07:25:28.357Z,18.0
2018-06-24T07:26:29.759Z,18.0
2018-06-24T07:27:31.151Z,18.0
2018-06-24T07:28:32.623Z,18.2
2018-06-24T07:29:34.063Z,18.2
2018-06-24T07:30:35.466Z,18.2
2018-06-24T07:31:36.864Z,18.2
2018-06-24T07:32:38.266Z,18.3
2018-06-24T07:33:39.811Z,18.5
2018-06-24T07:34:41.060Z,18.4
2018-06-24T07:35:42.457Z,18.4
2018-06-24T07:36:43.861Z,18.5
2018-06-24T07:37:45.254Z,18.6
2018-06-24T07:38:46.657Z,18.6
2018-06-24T07:39:48.055Z,18.6
2018-06-24T07:40:49.450Z,18.7
2018-06-24T07:41:50.856Z,18.7
2018-06-24T07:42:52.247Z,18.8
2018-06-24T07:43:53.644Z,18.7
2018-06-24T07:44:55.044Z,18.8
2018-06-24T07:45:56.444Z,18.7
2018-06-24T07:46:57.840Z,18.7
2018-06-24T07:47:59.238Z,18.8
2018-06-24T07:49:00.900Z,18.7
2018-06-24T07:50:03.641Z,18.7
2018-06-24T07:51:05.049Z,18.9
2018-06-24T07:52:06.449Z,18.9
2018-06-24T07:53:07.846Z,18.9
2018-06-24T07:54:09.247Z,18.9
2018-06-24T07:55:10.641Z,18.9
2018-06-24T07:56:12.039Z,18.9
2018-06-24T07:57:13.456Z,18.7
2018-06-24T07:58:14.850Z,18.7
2018-06-24T07:59:16.251Z,18.6
2018-06-24T08:00:17.650Z,18.6
2018-06-24T08:01:19.048Z,18.6
2018-06-24T08:02:20.478Z,18.6
2018-06-24T08:03:21.920Z,18.6
2018-06-24T08:04:23.274Z,18.7
2018-06-24T08:05:24.673Z,18.6
2018-06-24T08:06:26.068Z,18.7
2018-06-24T08:07:27.468Z,18.7
2018-06-24T08:08:28.966Z,18.7
2018-06-24T08:09:30.383Z,18.7
2018-06-24T08:10:31.780Z,18.9
2018-06-24T08:11:33.190Z,18.7
2018-06-24T08:12:34.792Z,18.8
2018-06-24T08:13:37.146Z,18.8
2018-06-24T08:14:38.860Z,18.7
2018-06-24T08:15:40.564Z,18.7
2018-06-24T08:16:42.271Z,18.7
2018-06-24T08:17:43.595Z,18.6
2018-06-24T08:18:45.016Z,18.5
2018-06-24T08:19:46.449Z,18.5
2018-06-24T08:20:47.850Z,18.5
2018-06-24T08:21:49.264Z,18.6
2018-06-24T08:22:50.738Z,18.6
2018-06-24T08:23:52.081Z,18.7
2018-06-24T08:24:53.493Z,18.8
2018-06-24T08:25:54.892Z,18.7
2018-06-24T08:26:56.335Z,18.7
2018-06-24T08:27:57.766Z,18.7
2018-06-24T08:28:59.178Z,18.7
2018-06-24T08:30:00.765Z,18.7
2018-06-24T08:31:02.165Z,18.6
2018-06-24T08:32:03.570Z,18.7
2018-06-24T08:33:04.968Z,18.7
2018-06-24T08:34:06.386Z,18.7
2018-06-24T08:35:07.800Z,18.9
2018-06-24T08:36:09.202Z,18.9
2018-06-24T08:37:10.624Z,18.9
2018-06-24T08:38:12.004Z,19.0
2018-06-24T08:39:13.403Z,19.1
2018-06-24T08:40:14.807Z,19.0
2018-06-24T08:41:16.212Z,19.0
2018-06-24T08:42:17.611Z,19.1
2018-06-24T08:43:19.009Z,19.1
2018-06-24T08:44:20.410Z,19.2
2018-06-24T08:45:21.832Z,19.4
2018-06-24T08:46:23.222Z,19.4
2018-06-24T08:47:24.620Z,19.4
2018-06-24T08:48:26.020Z,19.4
2018-06-24T08:49:27.418Z,19.5
2018-06-24T08:50:28.814Z,19.6
2018-06-24T08:51:30.214Z,19.6
2018-06-24T08:52:31.609Z,19.7
2018-06-24T08:53:33.012Z,19.7
2018-06-24T08:54:34.517Z,19.6
2018-06-24T08:55:35.913Z,19.6
2018-06-24T08:56:37.312Z,19.6
2018-06-24T08:57:38.712Z,19.7
2018-06-24T08:58:40.110Z,19.6
2018-06-24T08:59:41.603Z,19.8
2018-06-24T09:00:43.057Z,19.8
2018-06-24T09:01:44.439Z,19.6
2018-06-24T09:02:45.838Z,19.7
2018-06-24T09:03:47.244Z,19.6
2018-06-24T09:04:48.644Z,19.8
2018-06-24T09:05:50.044Z,20.0
2018-06-24T09:06:51.448Z,20.0
2018-06-24T09:07:52.838Z,20.1
2018-06-24T09:08:54.245Z,20.2
2018-06-24T09:09:55.641Z,20.2
2018-06-24T09:10:57.044Z,20.2
2018-06-24T09:11:58.441Z,20.3
2018-06-24T09:12:59.845Z,20.4
2018-06-24T09:14:01.271Z,20.4
2018-06-24T09:15:02.642Z,20.4
2018-06-24T09:16:04.038Z,20.4
2018-06-24T09:17:07.151Z,20.3
2018-06-24T09:18:08.558Z,20.3
2018-06-24T09:19:09.961Z,20.3
2018-06-24T09:20:11.362Z,20.2
2018-06-24T09:21:12.761Z,20.2
2018-06-24T09:22:14.232Z,20.1
2018-06-24T09:23:15.576Z,20.0
2018-06-24T09:24:16.974Z,20.0
2018-06-24T09:25:18.375Z,20.0
2018-06-24T09:26:19.778Z,20.1
2018-06-24T09:27:21.179Z,20.1
2018-06-24T09:28:22.579Z,20.1
2018-06-24T09:29:23.976Z,20.2
2018-06-24T09:30:25.374Z,20.2
2018-06-24T09:31:26.770Z,20.3
2018-06-24T09:32:28.176Z,20.4
2018-06-24T09:33:29.567Z,20.3
2018-06-24T09:34:30.977Z,20.2
2018-06-24T09:35:32.371Z,20.2
2018-06-24T09:36:33.773Z,20.3
2018-06-24T09:37:35.169Z,20.3
2018-06-24T09:38:36.572Z,20.4
2018-06-24T09:39:37.972Z,20.5
2018-06-24T09:40:39.375Z,20.5
2018-06-24T09:41:40.989Z,20.5
2018-06-24T09:42:42.476Z,20.5
2018-06-24T09:43:44.336Z,20.5
2018-06-24T09:44:46.219Z,20.6
2018-06-24T09:45:47.683Z,20.7
2018-06-24T09:46:49.565Z,20.7
2018-06-24T09:47:50.944Z,20.8
2018-06-24T09:48:52.437Z,20.8
2018-06-24T09:49:53.988Z,20.8
2018-06-24T09:50:55.826Z,20.9
2018-06-24T09:51:57.185Z,20.9
2018-06-24T09:52:58.601Z,20.7
2018-06-24T09:54:00.491Z,20.7
2018-06-24T09:55:02.231Z,20.9
2018-06-24T09:56:03.936Z,20.9
2018-06-24T09:57:05.326Z,20.8
2018-06-24T09:58:07.468Z,20.9
2018-06-24T09:59:08.868Z,21.0
2018-06-24T10:00:10.273Z,21.0
2018-06-24T10:01:11.678Z,21.0
2018-06-24T10:02:13.086Z,21.0
2018-06-24T10:03:14.538Z,21.0
2018-06-24T10:04:15.881Z,21.1
2018-06-24T10:05:17.316Z,21.2
2018-06-24T10:06:18.718Z,21.3
2018-06-24T10:07:20.140Z,21.3
2018-06-24T10:08:21.541Z,21.4
2018-06-24T10:09:22.942Z,21.6
2018-06-24T10:10:24.349Z,21.8
2018-06-24T10:11:25.753Z,21.8
2018-06-24T10:12:27.154Z,21.9
2018-06-24T10:13:28.557Z,21.9
2018-06-24T10:14:29.959Z,21.9
2018-06-24T10:15:31.364Z,21.9
2018-06-24T10:16:32.763Z,21.9
2018-06-24T10:17:34.204Z,22.1
2018-06-24T10:18:35.567Z,22.2
2018-06-24T10:19:37.800Z,22.3
2018-06-24T10:20:39.308Z,22.4
2018-06-24T10:21:40.964Z,22.3
2018-06-24T10:22:43.209Z,22.3
2018-06-24T10:23:46.483Z,22.4
2018-06-24T10:24:47.890Z,22.3
2018-06-24T10:25:49.288Z,22.2
2018-06-24T10:26:50.685Z,22.3
2018-06-24T10:27:52.087Z,22.3
2018-06-24T10:28:53.487Z,22.4
2018-06-24T10:29:54.891Z,22.6
2018-06-24T10:30:56.292Z,22.6
2018-06-24T10:31:57.715Z,22.6
2018-06-24T10:32:59.125Z,22.8
2018-06-24T10:34:00.523Z,22.8
2018-06-24T10:35:01.950Z,22.8
2018-06-24T10:36:03.337Z,23.0
2018-06-24T10:37:04.751Z,23.0
2018-06-24T10:38:06.141Z,23.2
2018-06-24T10:39:07.545Z,23.1
2018-06-24T10:40:08.948Z,23.2
2018-06-24T10:41:10.413Z,23.3
2018-06-24T10:42:11.756Z,23.4
2018-06-24T10:43:13.159Z,23.5
2018-06-24T10:44:14.565Z,23.6
2018-06-24T10:45:15.963Z,23.6
2018-06-24T10:46:17.377Z,23.7
2018-06-24T10:47:18.784Z,23.7
2018-06-24T10:48:20.193Z,23.5
2018-06-24T10:49:21.594Z,23.4
2018-06-24T10:50:22.991Z,23.4
2018-06-24T10:51:24.394Z,23.6
2018-06-24T10:52:25.811Z,23.6
2018-06-24T10:53:27.214Z,23.7
2018-06-24T10:54:28.658Z,23.8
2018-06-24T10:55:30.141Z,23.7
2018-06-24T10:56:31.617Z,23.8
2018-06-24T10:57:33.021Z,23.7
2018-06-24T10:58:34.424Z,23.5
2018-06-24T10:59:35.830Z,23.6
2018-06-24T11:00:37.230Z,23.8
2018-06-24T11:01:38.637Z,24.0
2018-06-24T11:02:40.036Z,24.0
2018-06-24T11:03:41.440Z,24.1
2018-06-24T11:04:42.845Z,24.0
2018-06-24T11:05:44.269Z,24.0
2018-06-24T11:06:45.658Z,23.8
2018-06-24T11:07:47.071Z,23.8
2018-06-24T11:08:48.512Z,23.6
2018-06-24T11:09:49.937Z,23.6
2018-06-24T11:10:51.329Z,23.7
2018-06-24T11:11:52.733Z,23.7
2018-06-24T11:12:54.155Z,23.7
2018-06-24T11:13:55.558Z,23.5
2018-06-24T11:14:56.995Z,23.6
2018-06-24T11:15:58.418Z,23.6
2018-06-24T11:16:59.821Z,23.5
2018-06-24T11:18:01.222Z,23.5
2018-06-24T11:19:02.621Z,23.6
2018-06-24T11:20:04.071Z,23.7
2018-06-24T11:21:05.426Z,23.7
2018-06-24T11:22:06.834Z,24.0
2018-06-24T11:23:08.237Z,24.3
2018-06-24T11:24:09.636Z,24.2
2018-06-24T11:25:11.042Z,24.2
2018-06-24T11:26:12.441Z,24.1
2018-06-24T11:27:13.844Z,23.9
2018-06-24T11:28:15.249Z,24.0
2018-06-24T11:29:16.657Z,24.0
2018-06-24T11:30:18.055Z,23.8
2018-06-24T11:31:19.463Z,23.7
2018-06-24T11:32:20.865Z,23.7
2018-06-24T11:33:22.264Z,23.6
2018-06-24T11:34:23.667Z,23.7
2018-06-24T11:35:25.077Z,23.8
2018-06-24T11:36:26.480Z,23.7
2018-06-24T11:37:27.880Z,23.7
2018-06-24T11:38:29.285Z,23.8
2018-06-24T11:39:30.682Z,23.9
2018-06-24T11:40:32.122Z,23.9
2018-06-24T11:41:33.526Z,24.1
2018-06-24T11:42:34.951Z,24.2
2018-06-24T11:43:36.362Z,24.4
2018-06-24T11:44:37.768Z,24.5
2018-06-24T11:45:39.169Z,24.4
2018-06-24T11:46:40.571Z,24.4
2018-06-24T11:47:42.004Z,24.4
2018-06-24T11:48:43.408Z,24.6
2018-06-24T11:49:44.816Z,24.8
2018-06-24T11:50:46.217Z,24.9
2018-06-24T11:51:47.618Z,24.9
2018-06-24T11:52:49.020Z,25.1
2018-06-24T11:53:50.421Z,25.3
2018-06-24T11:54:51.827Z,25.5
2018-06-24T11:55:53.341Z,25.5
2018-06-24T11:56:54.767Z,25.7
2018-06-24T11:57:56.168Z,25.8
2018-06-24T11:58:57.576Z,25.9
2018-06-24T11:59:58.980Z,25.9
2018-06-24T12:01:00.380Z,25.8
2018-06-24T12:02:01.853Z,26.0
2018-06-24T12:03:03.195Z,26.0
2018-06-24T12:04:04.644Z,25.8
2018-06-24T12:05:06.695Z,25.8
2018-06-24T12:06:08.098Z,25.7
2018-06-24T12:07:09.509Z,25.7
2018-06-24T12:08:10.915Z,25.6
2018-06-24T12:09:12.325Z,25.6
2018-06-24T12:10:13.740Z,25.7
2018-06-24T12:11:15.147Z,25.8
2018-06-24T12:12:16.554Z,26.0
2018-06-24T12:13:17.977Z,26.1
2018-06-24T12:14:19.376Z,26.1
2018-06-24T12:15:20.779Z,26.1
2018-06-24T12:16:22.181Z,26.1
2018-06-24T12:17:27.725Z,26.1
2018-06-24T12:18:24.991Z,26.1
2018-06-24T12:19:26.394Z,26.3
2018-06-24T12:20:27.799Z,26.5
2018-06-24T12:21:29.210Z,26.6
2018-06-24T12:22:30.619Z,26.6
2018-06-24T12:23:32.079Z,26.7
2018-06-24T12:24:33.536Z,26.9
2018-06-24T12:25:34.943Z,27.0
2018-06-24T12:26:36.372Z,27.0
2018-06-24T12:27:37.773Z,26.9
2018-06-24T12:28:39.178Z,27.1
2018-06-24T12:29:40.583Z,27.1
2018-06-24T12:30:42.056Z,26.9
2018-06-24T12:31:43.393Z,26.9
2018-06-24T12:32:44.794Z,26.8
2018-06-24T12:33:46.235Z,26.8
2018-06-24T12:34:47.642Z,26.6
2018-06-24T12:35:49.056Z,26.7
2018-06-24T12:36:50.459Z,26.7
2018-06-24T12:37:51.861Z,26.7
2018-06-24T12:38:53.272Z,26.8
2018-06-24T12:39:54.677Z,26.8
2018-06-24T12:40:56.081Z,26.7
2018-06-24T12:41:57.536Z,26.7
2018-06-24T12:42:58.988Z,26.7
2018-06-24T12:44:00.464Z,26.8
2018-06-24T12:45:01.837Z,26.8
2018-06-24T12:46:03.246Z,26.9
2018-06-24T12:47:04.651Z,26.9
2018-06-24T12:48:06.052Z,26.6
2018-06-24T12:49:07.458Z,26.4
2018-06-24T12:50:08.861Z,26.5
2018-06-24T12:51:10.268Z,26.5
2018-06-24T12:52:11.673Z,26.2
2018-06-24T12:53:13.079Z,26.2
2018-06-24T12:54:14.480Z,26.1
2018-06-24T12:55:15.887Z,26.3
2018-06-24T12:56:17.293Z,26.3
2018-06-24T12:57:18.693Z,26.3
2018-06-24T12:58:20.259Z,26.2
2018-06-24T12:59:21.546Z,26.1
2018-06-24T13:00:23.245Z,26.1
2018-06-24T13:01:24.314Z,26.1
2018-06-24T13:02:25.723Z,26.0
2018-06-24T13:03:27.132Z,26.3
2018-06-24T13:04:28.544Z,26.4
2018-06-24T13:05:29.946Z,26.5
2018-06-24T13:06:31.344Z,26.8
2018-06-24T13:07:32.756Z,26.8
2018-06-24T13:08:34.155Z,26.6
2018-06-24T13:09:35.561Z,26.4
2018-06-24T13:10:36.959Z,26.4
2018-06-24T13:11:38.364Z,26.3
2018-06-24T13:12:39.769Z,26.4
2018-06-24T13:13:41.171Z,26.2
2018-06-24T13:14:42.584Z,26.0
2018-06-24T13:15:43.992Z,25.8
2018-06-24T13:16:45.397Z,25.8
2018-06-24T13:17:46.799Z,25.9
2018-06-24T13:18:48.203Z,26.0
2018-06-24T13:19:49.608Z,25.9
2018-06-24T13:20:51.012Z,25.5
2018-06-24T13:21:52.414Z,25.2
2018-06-24T13:22:53.816Z,25.3
2018-06-24T13:23:55.223Z,25.4
2018-06-24T13:24:56.629Z,25.3
2018-06-24T13:25:58.037Z,25.5
2018-06-24T13:26:59.440Z,25.6
2018-06-24T13:28:00.845Z,25.7
2018-06-24T13:29:02.321Z,25.9
2018-06-24T13:30:03.758Z,26.1
2018-06-24T13:31:05.178Z,26.2
2018-06-24T13:32:06.611Z,26.3
2018-06-24T13:33:07.999Z,26.4
2018-06-24T13:34:09.710Z,26.4
2018-06-24T13:35:11.654Z,26.5
2018-06-24T13:36:13.436Z,26.5
2018-06-24T13:37:15.290Z,26.5